Time;durP1;ratioP1;P1;durP2;ratioP2;P2;SDS_P1;SDS_P2;PMS_P1;PMS_P2;Temp;Humidity;BMP_temperature;BMP_pressure;BME280_temperature;BME280_humidity;BME280_pressure;Samples;Min_cycle;Max_cycle;Signal;HPM_P1;HPM_P2
2023/07/15 00:00:51;;;;;;;9.15;2.63;;;;;;;23.31;48.33;99919.06;4116692;28;20073;-63
2023/07/15 00:02:54;;;;;;;6.25;2.15;;;;;;;23.25;48.49;99919.34;4100107;29;20480;-63
2023/07/15 00:04:57;;;;;;;5.72;2.47;;;;;;;23.22;48.65;99924.78;4117203;28;20412;-63
2023/07/15 00:07:00;;;;;;;7.28;2.70;;;;;;;23.20;48.52;99919.56;4116808;28;20046;-64
2023/07/15 00:09:04;;;;;;;7.00;2.83;;;;;;;23.18;48.03;99918.78;4117148;28;20046;-64
2023/07/15 00:11:16;;;;;;;8.07;2.72;;;;;;;23.14;48.15;99918.06;4117041;28;20038;-63
2023/07/15 00:13:19;;;;;;;6.50;2.63;;;;;;;23.10;47.98;99912.94;4117069;28;20035;-64
2023/07/15 00:15:22;;;;;;;7.75;2.40;;;;;;;23.07;48.06;99911.31;4117011;28;20101;-63
2023/07/15 00:17:25;;;;;;;10.10;2.38;;;;;;;23.04;48.18;99913.22;4116754;28;20505;-63
2023/07/15 00:19:29;;;;;;;5.20;2.28;;;;;;;23.00;48.52;99920.47;4099725;29;20584;-63
2023/07/15 00:21:35;;;;;;;5.22;2.78;;;;;;;22.95;48.73;99918.00;4116857;28;20048;-63
2023/07/15 00:23:36;;;;;;;5.28;2.40;;;;;;;22.93;48.97;99917.22;4116861;28;20093;-63
2023/07/15 00:25:39;;;;;;;5.35;2.28;;;;;;;22.92;48.96;99919.94;4116851;28;20046;-64
2023/07/15 00:27:44;;;;;;;5.63;2.80;;;;;;;22.91;48.99;99921.75;4116590;28;20055;-63
2023/07/15 00:29:47;;;;;;;5.65;2.00;;;;;;;22.88;49.01;99921.91;4099699;29;20433;-64
2023/07/15 00:31:50;;;;;;;5.30;2.47;;;;;;;22.87;49.24;99920.16;4099573;28;20043;-63
2023/07/15 00:33:53;;;;;;;5.55;2.58;;;;;;;22.88;49.23;99923.66;4115599;28;20058;-63
2023/07/15 00:35:56;;;;;;;7.25;2.88;;;;;;;22.87;49.57;99919.28;4099531;29;20507;-64
2023/07/15 00:38:00;;;;;;;11.47;2.57;;;;;;;22.80;49.58;99926.66;4099293;29;20150;-63
2023/07/15 00:40:03;;;;;;;7.67;2.90;;;;;;;22.86;49.67;99915.78;4099483;29;20298;-63
2023/07/15 00:42:12;;;;;;;8.88;2.20;;;;;;;22.78;49.83;99916.16;4099449;28;20073;-63
2023/07/15 00:44:15;;;;;;;6.57;2.58;;;;;;;22.92;48.85;99910.19;4116635;28;20051;-63
2023/07/15 00:46:49;;;;;;;4.28;2.45;;;;;;;22.74;49.29;99913.72;4099343;29;20043;-63
2023/07/15 00:48:54;;;;;;;6.20;2.55;;;;;;;22.67;49.71;99916.59;4116496;28;20504;-63
2023/07/15 00:50:57;;;;;;;6.18;2.47;;;;;;;22.60;50.00;99914.31;4099106;28;20039;-63
2023/07/15 00:53:00;;;;;;;4.97;2.35;;;;;;;22.59;50.02;99912.56;4099302;29;20051;-63
2023/07/15 00:55:03;;;;;;;6.38;2.47;;;;;;;22.57;50.03;99919.75;4099274;29;20035;-63
2023/07/15 00:57:08;;;;;;;5.82;2.67;;;;;;;22.54;50.01;99915.44;4098962;29;20039;-63
2023/07/15 00:59:12;;;;;;;6.68;2.58;;;;;;;22.58;49.79;99921.47;4099100;29;20134;-63
2023/07/15 01:01:17;;;;;;;6.53;2.72;;;;;;;22.52;50.07;99916.47;4099070;28;20049;-63
2023/07/15 01:03:21;;;;;;;5.15;2.28;;;;;;;22.53;50.27;99920.81;4116367;28;20074;-63
2023/07/15 01:05:43;;;;;;;4.82;2.60;;;;;;;22.45;50.59;99927.28;4101786;28;20595;-64
2023/07/15 01:07:46;;;;;;;5.25;2.42;;;;;;;22.44;50.48;99924.72;4116199;28;20042;-63
2023/07/15 01:09:50;;;;;;;6.93;2.67;;;;;;;22.41;50.55;99916.91;4098963;29;20054;-63
2023/07/15 01:11:54;;;;;;;7.65;2.60;;;;;;;22.54;50.34;99920.72;4098287;28;20488;-62
2023/07/15 01:13:57;;;;;;;8.23;3.03;;;;;;;22.41;50.86;99916.91;4116138;28;20511;-63
2023/07/15 01:16:00;;;;;;;10.52;2.83;;;;;;;22.35;50.92;99904.78;4098911;29;20049;-63
2023/07/15 01:18:03;;;;;;;6.45;2.88;;;;;;;22.40;50.85;99913.41;4114728;28;20540;-63
2023/07/15 01:20:08;;;;;;;5.65;2.40;;;;;;;22.46;49.92;99909.63;4098825;29;20042;-63
2023/07/15 01:22:12;;;;;;;8.32;2.63;;;;;;;22.39;50.16;99918.78;4098756;28;20046;-63
2023/07/15 01:24:15;;;;;;;10.00;2.40;;;;;;;22.34;50.37;99926.94;4082965;29;20052;-63
2023/07/15 01:26:19;;;;;;;4.97;2.95;;;;;;;22.47;50.25;99925.47;4098648;29;20047;-63
2023/07/15 01:28:22;;;;;;;4.28;2.17;;;;;;;22.35;50.52;99925.13;4098759;29;20082;-63
2023/07/15 01:30:25;;;;;;;6.70;2.65;;;;;;;22.34;50.63;99926.03;4098701;28;20087;-63
2023/07/15 01:32:28;;;;;;;6.13;2.50;;;;;;;22.32;50.80;99920.81;4115774;28;20039;-63
2023/07/15 01:34:31;;;;;;;8.85;2.75;;;;;;;22.36;50.22;99918.91;4114719;28;20074;-63
2023/07/15 01:36:34;;;;;;;5.68;2.50;;;;;;;22.37;50.10;99916.19;4098425;29;20158;-63
2023/07/15 01:38:38;;;;;;;6.22;2.17;;;;;;;22.42;49.95;99921.28;4115837;28;20066;-63
2023/07/15 01:40:42;;;;;;;6.97;2.30;;;;;;;22.43;50.13;99917.72;4098644;29;20042;-64
2023/07/15 01:42:45;;;;;;;;;;;;;;;22.33;50.28;99924.31;4116186;28;20051;-63
2023/07/15 01:44:47;;;;;;;3.90;2.50;;;;;;;22.40;50.10;99917.81;4115719;28;20324;-63
2023/07/15 01:46:50;;;;;;;9.00;2.88;;;;;;;22.47;49.49;99917.50;4098303;29;20077;-63
2023/07/15 01:48:53;;;;;;;8.05;3.00;;;;;;;22.44;49.52;99916.78;4115669;28;20095;-63
2023/07/15 01:50:56;;;;;;;5.05;2.83;;;;;;;22.47;49.65;99913.97;4098326;28;20043;-63
2023/07/15 01:53:00;;;;;;;7.00;2.72;;;;;;;22.45;49.58;99916.69;4098552;29;20090;-63
2023/07/15 01:55:03;;;;;;;6.05;2.30;;;;;;;22.48;49.48;99908.63;4098469;29;20045;-63
2023/07/15 01:57:07;;;;;;;5.32;2.53;;;;;;;22.48;49.69;99913.06;4098233;29;20115;-63
2023/07/15 01:59:10;;;;;;;9.63;2.92;;;;;;;22.53;49.79;99903.13;4098483;29;20434;-63
2023/07/15 02:01:13;;;;;;;5.50;2.55;;;;;;;22.52;49.58;99903.22;4098287;28;20094;-63
2023/07/15 02:03:16;;;;;;;7.05;3.20;;;;;;;22.53;49.45;99903.13;4098426;29;20039;-63
2023/07/15 02:05:19;;;;;;;6.07;2.38;;;;;;;22.48;49.73;99903.31;4114322;28;20496;-63
2023/07/15 02:07:23;;;;;;;8.68;2.47;;;;;;;22.53;49.78;99905.78;4098144;29;20040;-63
2023/07/15 02:09:26;;;;;;;6.53;2.53;;;;;;;22.54;49.90;99901.34;4098392;29;20046;-63
2023/07/15 02:11:29;;;;;;;6.28;2.75;;;;;;;22.57;49.69;99902.06;4098328;28;20131;-63
2023/07/15 02:13:33;;;;;;;5.47;2.30;;;;;;;22.51;50.02;99897.03;4114306;28;20042;-63
2023/07/15 02:15:36;;;;;;;3.78;2.10;;;;;;;22.52;49.96;99893.47;4098296;29;20071;-63
2023/07/15 02:17:39;;;;;;;5.65;2.70;;;;;;;22.51;50.06;99894.38;4082180;29;20082;-63
2023/07/15 02:19:42;;;;;;;5.18;2.10;;;;;;;22.60;49.82;99886.00;4098171;29;20043;-63
2023/07/15 02:21:45;;;;;;;3.63;2.20;;;;;;;22.48;50.14;99894.53;4082391;29;20050;-63
2023/07/15 02:23:48;;;;;;;4.32;2.38;;;;;;;22.42;50.41;99887.69;4100930;28;20537;-63
2023/07/15 02:25:51;;;;;;;4.20;1.98;;;;;;;22.46;50.26;99899.03;4101524;29;20047;-63
2023/07/15 02:27:53;;;;;;;4.07;2.53;;;;;;;22.43;50.45;99894.72;4117233;28;20062;-63
2023/07/15 02:29:58;;;;;;;6.82;3.03;;;;;;;22.52;50.11;99885.53;4101463;29;20153;-63
2023/07/15 02:32:01;;;;;;;8.32;2.42;;;;;;;22.48;50.20;99884.78;4118568;28;20045;-63
2023/07/15 02:34:04;;;;;;;5.85;3.08;;;;;;;22.46;50.26;99888.44;4118533;28;20050;-63
2023/07/15 02:36:07;;;;;;;5.20;2.45;;;;;;;22.46;50.44;99886.66;4118560;28;20074;-63
2023/07/15 02:38:10;;;;;;;7.13;2.40;;;;;;;22.45;50.42;99882.28;4101170;29;20128;-63
2023/07/15 02:40:13;;;;;;;5.57;2.75;;;;;;;22.43;50.68;99883.28;4101265;29;20122;-63
2023/07/15 02:42:16;;;;;;;7.45;2.97;;;;;;;22.46;50.36;99885.78;4101143;28;20066;-63
2023/07/15 02:44:19;;;;;;;7.30;2.97;;;;;;;22.42;50.73;99881.56;4118417;28;20042;-63
2023/07/15 02:46:24;;;;;;;6.40;3.03;;;;;;;22.39;50.88;99882.53;4116994;28;20504;-63
2023/07/15 02:48:27;;;;;;;4.00;2.58;;;;;;;22.38;50.55;99880.81;4101142;29;20525;-64
2023/07/15 02:50:29;;;;;;;5.85;2.50;;;;;;;22.35;50.90;99875.66;4101068;29;20047;-63
2023/07/15 02:52:33;;;;;;;5.03;2.42;;;;;;;22.36;50.79;99876.53;4104797;23;20051;-68
2023/07/15 02:54:35;;;;;;;5.18;2.90;;;;;;;22.32;51.00;99875.81;4101168;29;20047;-68
2023/07/15 02:56:38;;;;;;;5.43;2.00;;;;;;;22.28;51.17;99863.56;4085001;29;20115;-68
2023/07/15 02:58:41;;;;;;;6.10;2.72;;;;;;;22.26;51.27;99863.66;4085211;29;20074;-68
2023/07/15 03:00:44;;;;;;;4.30;2.42;;;;;;;22.28;51.55;99864.47;4085125;29;20119;-68
2023/07/15 03:02:48;;;;;;;3.55;2.47;;;;;;;22.22;51.46;99864.69;4069265;29;20612;-68
2023/07/15 03:04:52;;;;;;;5.25;2.67;;;;;;;22.16;51.75;99864.97;4102082;29;20098;-68
2023/07/15 03:06:56;;;;;;;4.10;2.53;;;;;;;22.19;51.80;99867.50;4084896;29;20040;-68
2023/07/15 03:08:58;;;;;;;4.88;2.80;;;;;;;22.19;51.69;99875.44;4085078;29;20453;-68
2023/07/15 03:11:02;;;;;;;4.45;2.35;;;;;;;22.26;51.51;99863.66;4085063;29;20040;-68
2023/07/15 03:13:06;;;;;;;5.15;3.00;;;;;;;22.21;51.79;99865.66;4100793;29;20633;-70
2023/07/15 03:15:10;;;;;;;4.55;2.97;;;;;;;22.18;51.95;99868.44;4084942;29;20513;-68
2023/07/15 03:17:17;;;;;;;5.05;2.80;;;;;;;22.19;51.86;99864.00;4101665;29;20047;-69
2023/07/15 03:19:22;;;;;;;6.32;2.88;;;;;;;22.20;52.06;99863.94;4084867;29;20039;-68
2023/07/15 03:21:25;;;;;;;10.60;2.78;;;;;;;22.16;52.14;99859.69;4084707;29;20076;-68
2023/07/15 03:23:27;;;;;;;6.15;2.92;;;;;;;22.14;52.22;99856.25;4101827;29;20544;-68
2023/07/15 03:25:31;;;;;;;7.60;2.40;;;;;;;22.18;51.89;99856.97;4101850;29;20178;-69
2023/07/15 03:27:34;;;;;;;6.55;2.60;;;;;;;22.13;52.20;99857.19;4068858;29;20048;-68
2023/07/15 03:29:39;;;;;;;3.60;2.67;;;;;;;22.10;52.33;99849.38;4084739;29;20525;-68
2023/07/15 03:31:42;;;;;;;3.92;2.63;;;;;;;22.08;52.29;99845.94;4101610;28;20050;-68
2023/07/15 03:33:45;;;;;;;5.75;2.83;;;;;;;22.03;52.67;99840.81;4084630;29;20079;-68
2023/07/15 03:35:49;;;;;;;4.88;2.67;;;;;;;22.05;52.61;99848.69;4084059;28;20043;-68
2023/07/15 03:37:52;;;;;;;5.05;2.83;;;;;;;22.01;52.73;99837.41;4068541;29;20526;-68
2023/07/15 03:39:55;;;;;;;7.68;3.30;;;;;;;22.07;52.24;99853.00;4084608;29;20051;-68
2023/07/15 03:41:58;;;;;;;4.88;2.80;;;;;;;21.95;52.50;99862.34;4084479;29;20035;-68
2023/07/15 03:44:01;;;;;;;5.50;2.70;;;;;;;21.95;52.67;99857.03;4084536;29;20075;-68
2023/07/15 03:46:04;;;;;;;3.90;2.22;;;;;;;21.98;52.42;99866.66;4101824;29;20130;-68
2023/07/15 03:48:07;;;;;;;5.35;2.92;;;;;;;22.02;52.46;99870.00;4101214;29;20078;-68
2023/07/15 03:50:10;;;;;;;3.80;2.28;;;;;;;22.06;52.29;99858.38;4101453;29;20043;-68
2023/07/15 03:52:14;;;;;;;4.18;2.28;;;;;;;22.10;52.15;99870.56;4101264;28;20043;-68
2023/07/15 03:54:16;;;;;;;4.32;2.60;;;;;;;22.07;52.07;99857.44;4084543;29;20079;-68
2023/07/15 03:56:19;;;;;;;4.53;2.55;;;;;;;22.09;52.31;99853.81;4101242;29;20040;-68
2023/07/15 03:58:22;;;;;;;4.85;2.50;;;;;;;22.07;52.63;99857.44;4101279;29;20432;-69
2023/07/15 04:00:25;;;;;;;3.42;2.42;;;;;;;22.06;52.71;99853.91;4101284;29;20051;-68
2023/07/15 04:02:28;;;;;;;4.78;2.47;;;;;;;22.05;52.74;99859.28;4101129;28;20042;-68
2023/07/15 04:04:31;;;;;;;7.72;3.00;;;;;;;22.02;52.94;99859.41;4101277;29;20051;-68
2023/07/15 04:06:34;;;;;;;4.53;2.70;;;;;;;22.00;52.86;99859.47;4083977;29;20513;-69
2023/07/15 04:08:38;;;;;;;4.90;2.63;;;;;;;22.02;52.97;99862.06;4101152;29;20082;-69
2023/07/15 04:10:41;;;;;;;4.97;2.80;;;;;;;22.00;53.01;99863.94;4101149;29;20043;-69
2023/07/15 04:12:44;;;;;;;3.90;2.40;;;;;;;22.01;53.04;99865.66;4101007;28;20041;-69
2023/07/15 04:14:47;;;;;;;7.78;2.70;;;;;;;22.01;53.18;99865.66;4101084;29;20130;-68
2023/07/15 04:16:50;;;;;;;7.18;2.38;;;;;;;21.99;53.44;99878.09;4100696;29;20134;-69
2023/07/15 04:18:53;;;;;;;5.53;2.55;;;;;;;22.00;53.99;99869.22;4101016;29;20035;-69
2023/07/15 04:20:56;;;;;;;6.72;2.75;;;;;;;21.97;54.01;99879.00;4100895;29;20505;-69
2023/07/15 04:22:59;;;;;;;5.88;2.17;;;;;;;22.00;54.06;99863.94;4100918;28;20070;-69
2023/07/15 04:25:03;;;;;;;5.78;2.63;;;;;;;22.00;54.09;99861.28;4083874;29;20050;-69
2023/07/15 04:27:06;;;;;;;4.38;2.33;;;;;;;21.99;54.09;99868.38;4100586;29;20601;-68
2023/07/15 04:29:10;;;;;;;5.65;2.35;;;;;;;22.03;54.32;99871.72;4100824;29;20074;-68
2023/07/15 04:31:11;;;;;;;5.40;2.75;;;;;;;22.07;54.31;99866.25;4100690;28;20134;-68
2023/07/15 04:33:15;;;;;;;4.13;2.90;;;;;;;22.07;54.49;99868.88;4100824;29;20568;-69
2023/07/15 04:35:18;;;;;;;5.45;2.58;;;;;;;22.06;54.63;99868.94;4100757;29;20043;-68
2023/07/15 04:37:21;;;;;;;5.28;2.60;;;;;;;22.07;54.77;99876.81;4083418;29;20047;-69
2023/07/15 04:39:25;;;;;;;4.20;2.25;;;;;;;22.07;54.68;99881.28;4100668;29;20130;-69
2023/07/15 04:41:30;;;;;;;4.78;2.58;;;;;;;22.09;54.66;99879.41;4100543;28;20413;-68
2023/07/15 04:43:32;;;;;;;;;;;;;;;22.09;54.30;99882.06;4101155;29;20053;-69
2023/07/15 04:45:35;;;;;;;5.38;2.30;;;;;;;22.05;54.99;99884.00;4083212;29;19922;-69
2023/07/15 04:47:39;;;;;;;6.57;2.38;;;;;;;22.10;55.02;99876.69;4082832;29;20572;-69
2023/07/15 04:49:42;;;;;;;5.82;3.00;;;;;;;22.13;54.93;99878.34;4083520;29;20040;-69
2023/07/15 04:51:45;;;;;;;5.70;2.88;;;;;;;22.21;55.22;99878.00;4100352;28;20037;-69
2023/07/15 04:53:47;;;;;;;4.95;2.75;;;;;;;22.24;54.80;99878.75;4100512;29;20093;-69
2023/07/15 04:55:50;;;;;;;5.65;2.33;;;;;;;22.27;54.29;99865.38;4100459;29;20078;-69
2023/07/15 04:57:55;;;;;;;5.13;2.60;;;;;;;22.38;53.64;99858.78;4083201;29;20589;-68
2023/07/15 04:59:58;;;;;;;3.42;2.63;;;;;;;22.42;53.80;99855.06;4083424;29;20051;-68
2023/07/15 05:02:03;;;;;;;9.90;2.80;;;;;;;22.40;53.32;99848.97;4083182;29;20036;-68
2023/07/15 05:04:06;;;;;;;4.32;2.20;;;;;;;22.52;52.94;99848.44;4083263;29;20052;-69
2023/07/15 05:06:09;;;;;;;3.72;2.10;;;;;;;22.40;52.83;99851.63;4100282;29;20047;-68
2023/07/15 05:08:15;;;;;;;7.07;2.40;;;;;;;22.46;52.71;99843.41;4082991;29;20066;-68
2023/07/15 05:10:18;;;;;;;6.30;2.20;;;;;;;22.55;52.41;99845.63;4067510;29;20050;-68
2023/07/15 05:12:21;;;;;;;4.32;2.40;;;;;;;22.64;51.73;99841.72;4083037;29;20071;-68
2023/07/15 05:14:25;;;;;;;5.32;2.65;;;;;;;22.73;51.97;99853.69;4083196;29;20043;-68
2023/07/15 05:16:29;;;;;;;5.30;2.45;;;;;;;22.77;51.70;99852.63;4099952;29;20134;-68
2023/07/15 05:18:32;;;;;;;5.32;2.50;;;;;;;22.84;51.93;99851.41;4083098;29;20055;-68
2023/07/15 05:20:35;;;;;;;4.85;2.42;;;;;;;22.86;51.36;99852.19;4100471;29;20044;-68
2023/07/15 05:22:38;;;;;;;5.50;2.10;;;;;;;22.92;51.37;99853.69;4099885;28;20080;-69
2023/07/15 05:24:41;;;;;;;4.25;2.35;;;;;;;22.98;51.51;99848.09;4100047;29;20154;-69
2023/07/15 05:26:44;;;;;;;4.13;2.17;;;;;;;23.05;51.36;99857.47;4099718;29;20048;-69
2023/07/15 05:28:48;;;;;;;6.93;2.63;;;;;;;23.18;51.02;99849.81;4099997;29;20050;-68
2023/07/15 05:30:51;;;;;;;4.15;2.35;;;;;;;23.22;51.94;99845.22;4099927;29;20050;-68
2023/07/15 05:32:54;;;;;;;6.37;2.43;;;;;;;23.26;51.12;99841.50;4099885;28;20449;-68
2023/07/15 05:34:57;;;;;;;3.50;2.00;;;;;;;23.33;51.38;99837.63;4099897;29;20094;-68
2023/07/15 05:37:00;;;;;;;6.13;2.70;;;;;;;23.41;50.96;99831.94;4066880;29;20498;-68
2023/07/15 05:39:03;;;;;;;6.00;2.42;;;;;;;23.51;50.81;99830.56;4082840;29;20048;-68
2023/07/15 05:41:06;;;;;;;3.13;2.28;;;;;;;23.63;50.19;99840.56;4082775;29;20055;-68
2023/07/15 05:43:09;;;;;;;5.07;2.25;;;;;;;23.75;50.10;99841.72;4099688;29;20047;-68
2023/07/15 05:45:13;;;;;;;4.03;2.05;;;;;;;23.83;50.05;99846.63;4082634;29;20050;-68
2023/07/15 05:47:17;;;;;;;6.70;2.58;;;;;;;23.98;49.94;99845.06;4099492;29;20505;-68
2023/07/15 05:49:22;;;;;;;5.65;2.08;;;;;;;24.04;49.13;99842.91;4082867;29;20503;-68
2023/07/15 05:51:25;;;;;;;4.30;2.60;;;;;;;24.15;48.76;99834.41;4099554;28;20044;-68
2023/07/15 05:53:28;;;;;;;3.30;2.17;;;;;;;24.31;48.56;99834.47;4082630;29;20134;-68
2023/07/15 05:55:33;;;;;;;5.07;2.75;;;;;;;24.40;48.33;99836.63;4082635;29;20413;-68
2023/07/15 05:57:36;;;;;;;5.78;3.10;;;;;;;24.60;48.27;99844.50;4099235;29;20596;-68
2023/07/15 05:59:39;;;;;;;4.88;2.47;;;;;;;24.55;47.88;99844.72;4082459;29;20060;-68
2023/07/15 06:01:42;;;;;;;6.63;2.45;;;;;;;24.67;47.91;99851.19;4099511;28;20047;-68
2023/07/15 06:03:46;;;;;;;6.32;2.90;;;;;;;24.76;47.48;99847.19;4082572;29;20091;-68
2023/07/15 06:05:49;;;;;;;;;;;;;;;24.73;47.82;99849.03;4099978;29;20066;-68
2023/07/15 06:07:52;;;;;;;8.90;1.98;;;;;;;24.71;47.39;99848.28;4082280;29;20380;-68
2023/07/15 06:09:55;;;;;;;2.90;2.15;;;;;;;24.80;46.68;99854.06;4099591;29;20127;-68
2023/07/15 06:11:58;;;;;;;5.03;2.22;;;;;;;24.97;46.35;99850.44;4099481;28;20409;-68
2023/07/15 06:14:03;;;;;;;4.07;2.42;;;;;;;25.08;46.61;99843.56;4099687;29;20430;-68
2023/07/15 06:16:06;;;;;;;2.40;1.88;;;;;;;25.21;46.03;99842.91;4099455;29;20047;-68
2023/07/15 06:18:08;;;;;;;4.72;2.03;;;;;;;25.31;45.65;99844.13;4099270;29;20047;-68
2023/07/15 06:20:13;;;;;;;7.25;2.67;;;;;;;25.42;45.57;99839.06;4099344;29;20043;-68
2023/07/15 06:22:15;;;;;;;;;;;;;;;25.19;45.76;99839.44;4099747;28;20137;-68
2023/07/15 06:24:18;;;;;;;3.78;1.80;;;;;;;25.20;44.96;99838.53;4099634;29;19923;-68
2023/07/15 06:26:21;;;;;;;6.72;2.42;;;;;;;25.34;44.29;99838.63;4066390;29;20048;-68
2023/07/15 06:28:24;;;;;;;5.20;2.25;;;;;;;25.43;44.63;99837.25;4099334;29;20043;-68
2023/07/15 06:30:27;;;;;;;6.13;2.38;;;;;;;25.54;44.11;99831.28;4099393;29;20130;-67
2023/07/15 06:32:30;;;;;;;3.05;2.25;;;;;;;25.72;43.79;99832.88;4099451;28;20055;-68
2023/07/15 06:34:33;;;;;;;5.85;2.30;;;;;;;25.95;43.53;99828.00;4099474;29;20063;-68
2023/07/15 06:36:37;;;;;;;5.00;2.25;;;;;;;26.05;42.84;99825.66;4099151;29;20079;-68
2023/07/15 06:38:41;;;;;;;6.63;2.38;;;;;;;25.99;43.50;99829.50;4099324;29;20035;-68
2023/07/15 06:40:43;;;;;;;4.90;2.00;;;;;;;25.82;43.27;99838.53;4082267;29;20429;-68
2023/07/15 06:42:47;;;;;;;4.47;2.40;;;;;;;25.77;43.50;99844.13;4082038;29;20592;-68
2023/07/15 06:44:50;;;;;;;3.92;2.15;;;;;;;25.69;43.63;99842.88;4082217;29;20142;-68
2023/07/15 06:46:53;;;;;;;4.40;2.30;;;;;;;25.63;43.62;99851.19;4098954;29;20043;-68
2023/07/15 06:48:56;;;;;;;3.05;1.90;;;;;;;25.48;43.86;99858.25;4082187;29;20498;-68
2023/07/15 06:50:59;;;;;;;3.20;1.90;;;;;;;25.47;44.08;99862.72;4099209;29;20039;-67
2023/07/15 06:53:03;;;;;;;2.45;1.90;;;;;;;25.42;44.40;99863.00;4099062;28;20039;-67
2023/07/15 06:55:06;;;;;;;;;;;;;;;25.35;44.22;99866.97;4099632;29;20044;-68
2023/07/15 06:57:09;;;;;;;5.40;2.90;;;;;;;25.40;44.51;99862.22;4098932;29;19929;-67
2023/07/15 06:59:12;;;;;;;5.40;2.53;;;;;;;25.38;44.83;99858.78;4099161;29;20043;-68
2023/07/15 07:01:15;;;;;;;5.60;2.40;;;;;;;25.34;45.00;99851.94;4099036;28;20035;-67
2023/07/15 07:03:18;;;;;;;4.97;2.33;;;;;;;25.34;45.23;99859.91;4099057;29;20511;-68
2023/07/15 07:05:21;;;;;;;6.78;2.58;;;;;;;25.34;45.75;99854.59;4099145;29;20039;-68
2023/07/15 07:07:24;;;;;;;4.65;2.25;;;;;;;25.35;45.50;99861.63;4081887;29;20051;-68
2023/07/15 07:09:28;;;;;;;4.50;2.70;;;;;;;25.36;45.44;99863.31;4099430;28;20130;-68
2023/07/15 07:11:31;;;;;;;5.82;2.50;;;;;;;25.35;45.59;99860.75;4102029;28;20489;-67
2023/07/15 07:13:34;;;;;;;10.07;2.47;;;;;;;25.32;45.66;99867.13;4101960;29;20132;-67
2023/07/15 07:15:37;;;;;;;9.07;2.85;;;;;;;25.36;46.04;99859.81;4101963;29;20046;-68
2023/07/15 07:17:40;;;;;;;3.75;2.10;;;;;;;25.35;46.46;99860.75;4084647;29;20101;-68
2023/07/15 07:19:42;;;;;;;6.35;2.30;;;;;;;25.33;46.45;99866.16;4101883;29;20405;-68
2023/07/15 07:21:45;;;;;;;5.85;1.92;;;;;;;25.32;46.33;99861.81;4101841;28;20077;-67
2023/07/15 07:23:52;;;;;;;4.18;2.40;;;;;;;25.35;46.19;99877.59;4084968;29;20122;-68
2023/07/15 07:25:56;;;;;;;5.18;2.60;;;;;;;25.29;47.07;99872.59;4101885;29;20082;-67
2023/07/15 07:27:59;;;;;;;3.40;2.10;;;;;;;25.27;46.92;99870.00;4084400;29;20505;-68
2023/07/15 07:30:02;;;;;;;3.75;2.25;;;;;;;25.24;46.94;99869.31;4084642;29;20082;-68
2023/07/15 07:32:06;;;;;;;6.03;2.40;;;;;;;25.35;46.58;99868.75;4101668;28;20548;-68
2023/07/15 07:34:09;;;;;;;3.75;2.28;;;;;;;25.26;46.04;99859.44;4101715;29;20067;-68
2023/07/15 07:36:12;;;;;;;4.05;2.63;;;;;;;25.19;46.79;99850.97;4084575;29;20047;-67
2023/07/15 07:38:15;;;;;;;3.80;2.33;;;;;;;25.24;47.33;99853.38;4101510;29;20043;-68
2023/07/15 07:40:18;;;;;;;4.15;2.50;;;;;;;25.33;46.78;99858.19;4101606;29;20409;-68
2023/07/15 07:42:22;;;;;;;4.80;2.33;;;;;;;25.35;47.11;99861.63;4101443;28;20046;-68
2023/07/15 07:44:25;;;;;;;5.70;2.15;;;;;;;25.44;46.59;99866.41;4084480;29;20413;-68
2023/07/15 07:46:28;;;;;;;3.83;2.38;;;;;;;25.57;46.26;99860.41;4101310;29;20050;-68
2023/07/15 07:48:31;;;;;;;3.58;2.25;;;;;;;25.61;45.98;99867.25;4101449;29;20044;-68
2023/07/15 07:50:35;;;;;;;9.93;2.23;;;;;;;25.61;46.30;99865.47;4101255;29;20053;-67
2023/07/15 07:52:38;;;;;;;7.22;2.35;;;;;;;25.65;45.85;99858.13;4084283;29;20303;-68
2023/07/15 07:54:41;;;;;;;3.88;1.77;;;;;;;25.69;46.37;99854.34;4084398;29;20047;-69
2023/07/15 07:56:44;;;;;;;6.30;2.45;;;;;;;25.76;46.04;99854.88;4084074;29;20076;-67
2023/07/15 07:58:48;;;;;;;5.88;2.50;;;;;;;25.81;45.55;99849.25;4101354;29;20074;-69
2023/07/15 08:00:51;;;;;;;2.45;2.05;;;;;;;25.98;45.73;99864.22;4101284;29;20054;-68
2023/07/15 08:02:54;;;;;;;4.75;2.30;;;;;;;26.22;44.34;99875.25;4068353;29;20499;-68
2023/07/15 08:04:57;;;;;;;4.63;2.15;;;;;;;26.42;43.89;99887.38;4084051;29;20075;-68
2023/07/15 08:07:00;;;;;;;2.63;1.88;;;;;;;26.59;44.17;99891.66;4100982;29;20043;-68
2023/07/15 08:09:03;;;;;;;3.83;2.35;;;;;;;26.71;43.73;99885.59;4101166;29;20070;-68
2023/07/15 08:11:06;;;;;;;9.53;2.67;;;;;;;26.90;44.05;99887.97;4101062;28;20046;-67
2023/07/15 08:13:09;;;;;;;3.30;2.17;;;;;;;27.03;43.41;99890.72;4101147;29;20047;-67
2023/07/15 08:15:14;;;;;;;5.53;2.17;;;;;;;27.31;42.26;99884.47;4101053;29;20039;-67
2023/07/15 08:17:17;;;;;;;4.13;2.33;;;;;;;27.40;42.28;99888.38;4100801;29;20131;-67
2023/07/15 08:19:20;;;;;;;6.53;1.98;;;;;;;27.36;42.41;99892.19;4100994;29;20043;-67
2023/07/15 08:21:23;;;;;;;4.05;2.40;;;;;;;27.50;42.60;99889.47;4100654;28;20098;-67
2023/07/15 08:23:26;;;;;;;7.30;2.40;;;;;;;27.67;41.95;99895.50;4100881;29;20150;-67
2023/07/15 08:25:29;;;;;;;4.55;2.40;;;;;;;27.81;41.33;99882.09;4083832;29;20470;-67
2023/07/15 08:27:32;;;;;;;8.77;2.25;;;;;;;27.90;41.35;99890.47;4100648;29;20062;-67
2023/07/15 08:29:34;;;;;;;4.88;2.25;;;;;;;28.00;41.29;99899.59;4100894;29;20043;-67
2023/07/15 08:31:39;;;;;;;4.55;2.30;;;;;;;28.07;40.70;99898.22;4083687;29;20075;-67
2023/07/15 08:33:42;;;;;;;3.15;2.03;;;;;;;28.13;40.91;99897.81;4083840;29;20043;-67
2023/07/15 08:35:45;;;;;;;4.93;2.53;;;;;;;28.32;40.42;99909.91;4083690;29;20086;-68
2023/07/15 08:37:48;;;;;;;5.18;2.58;;;;;;;28.12;41.08;99906.75;4100563;29;20039;-68
2023/07/15 08:39:54;;;;;;;4.90;2.28;;;;;;;28.07;40.91;99910.75;4083787;29;20043;-68
2023/07/15 08:42:00;;;;;;;4.32;1.88;;;;;;;28.11;40.62;99913.09;4100568;28;20154;-67
2023/07/15 08:44:04;;;;;;;5.22;2.33;;;;;;;28.24;40.38;99902.44;4100675;29;20032;-67
2023/07/15 08:46:14;;;;;;;3.63;2.33;;;;;;;28.41;40.12;99906.59;4100608;29;20043;-68
2023/07/15 08:48:18;;;;;;;5.85;1.90;;;;;;;28.56;39.22;99894.84;4083304;29;20055;-67
2023/07/15 08:50:21;;;;;;;;;;;;;;;28.92;38.65;99894.19;4100983;29;20525;-67
2023/07/15 08:52:24;;;;;;;5.35;2.67;;;;;;;28.98;38.76;99893.75;4120272;23;20363;-64
2023/07/15 08:54:28;;;;;;;5.00;2.20;;;;;;;28.97;39.23;99898.25;4116665;28;20148;-65
2023/07/15 08:56:32;;;;;;;4.28;2.17;;;;;;;28.98;38.25;99905.28;4114880;28;20497;-65
2023/07/15 08:58:36;;;;;;;6.25;2.70;;;;;;;28.98;38.03;99902.59;4116439;28;20080;-64
2023/07/15 09:00:39;;;;;;;4.05;2.38;;;;;;;29.07;37.83;99903.78;4115151;28;20058;-64
2023/07/15 09:02:42;;;;;;;3.70;2.33;;;;;;;28.92;37.92;99907.56;4116311;28;20066;-64
2023/07/15 09:04:46;;;;;;;4.50;1.98;;;;;;;28.78;37.88;99904.06;4116231;28;20043;-64
2023/07/15 09:06:50;;;;;;;5.50;2.20;;;;;;;28.87;38.30;99898.03;4116169;28;20042;-65
2023/07/15 09:08:53;;;;;;;4.18;2.50;;;;;;;29.10;37.88;99898.19;4114994;28;20043;-65
2023/07/15 09:10:57;;;;;;;5.65;3.00;;;;;;;29.24;37.07;99883.84;4114903;28;20042;-65
2023/07/15 09:13:00;;;;;;;8.95;2.38;;;;;;;29.10;37.89;99892.84;4116159;28;20047;-64
2023/07/15 09:15:07;;;;;;;3.50;1.90;;;;;;;29.03;36.84;99891.56;4116088;28;20045;-64
2023/07/15 09:17:15;;;;;;;3.38;2.30;;;;;;;29.08;37.11;99886.75;4115827;28;20038;-65
2023/07/15 09:19:21;;;;;;;3.58;2.10;;;;;;;29.13;36.70;99894.44;4116140;28;20518;-64
2023/07/15 09:21:25;;;;;;;3.80;2.05;;;;;;;29.07;37.06;99891.25;4116141;28;20535;-65
2023/07/15 09:23:31;;;;;;;3.55;1.92;;;;;;;29.04;36.90;99901.31;4115915;28;20588;-65
2023/07/15 09:25:35;;;;;;;3.70;2.08;;;;;;;28.98;36.61;99904.44;4114823;28;20302;-65
2023/07/15 09:27:42;;;;;;;2.33;1.92;;;;;;;28.93;37.25;99906.56;4115745;28;20045;-65
2023/07/15 09:29:50;;;;;;;3.15;1.80;;;;;;;28.86;37.09;99917.72;4116005;28;20049;-65
2023/07/15 09:31:53;;;;;;;3.25;1.92;;;;;;;28.84;36.79;99918.78;4114522;28;20043;-65
2023/07/15 09:34:03;;;;;;;4.90;2.33;;;;;;;28.82;37.62;99918.06;4115679;28;20043;-65
2023/07/15 09:36:07;;;;;;;5.40;1.88;;;;;;;28.81;37.98;99914.53;4115888;28;20500;-65
2023/07/15 09:38:10;;;;;;;2.75;1.98;;;;;;;28.77;38.41;99918.38;4115878;28;20043;-65
2023/07/15 09:40:13;;;;;;;4.13;2.13;;;;;;;28.78;38.50;99914.75;4115798;28;20043;-65
2023/07/15 09:42:16;;;;;;;5.40;2.15;;;;;;;28.73;38.22;99911.53;4114668;28;20042;-64